sensor_id;sensor_type;location;lat;lon;timestamp;P1;durP1;ratioP1;P2;durP2;ratioP2
51358;SDS011;37448;51.588;7.248;2024-03-08T00:01:59;24.00;;;13.32;;
51358;SDS011;37448;51.588;7.248;2024-03-08T00:03:59;25.73;;;15.07;;
51358;SDS011;37448;51.588;7.248;2024-03-08T00:06:00;23.42;;;14.05;;
51358;SDS011;37448;51.588;7.248;2024-03-08T00:08:00;24.05;;;13.38;;
51358;SDS011;37448;51.588;7.248;2024-03-08T00:10:00;23.90;;;14.48;;
51358;SDS011;37448;51.588;7.248;2024-03-08T00:12:02;24.20;;;13.15;;
51358;SDS011;37448;51.588;7.248;2024-03-08T00:14:02;22.08;;;13.02;;
51358;SDS011;37448;51.588;7.248;2024-03-08T00:16:06;22.55;;;13.10;;
51358;SDS011;37448;51.588;7.248;2024-03-08T00:18:09;23.67;;;13.60;;
51358;SDS011;37448;51.588;7.248;2024-03-08T00:20:10;20.67;;;13.40;;
51358;SDS011;37448;51.588;7.248;2024-03-08T00:22:11;24.90;;;13.32;;
51358;SDS011;37448;51.588;7.248;2024-03-08T00:24:11;22.48;;;13.45;;
51358;SDS011;37448;51.588;7.248;2024-03-08T00:26:12;21.20;;;12.88;;
51358;SDS011;37448;51.588;7.248;2024-03-08T00:28:12;19.65;;;12.88;;
51358;SDS011;37448;51.588;7.248;2024-03-08T00:30:15;19.17;;;12.23;;
51358;SDS011;37448;51.588;7.248;2024-03-08T00:32:15;21.92;;;13.65;;
51358;SDS011;37448;51.588;7.248;2024-03-08T00:34:17;24.92;;;14.20;;
51358;SDS011;37448;51.588;7.248;2024-03-08T00:36:17;26.40;;;14.10;;
51358;SDS011;37448;51.588;7.248;2024-03-08T00:38:17;21.92;;;13.80;;
51358;SDS011;37448;51.588;7.248;2024-03-08T00:40:18;19.33;;;12.90;;
51358;SDS011;37448;51.588;7.248;2024-03-08T00:42:19;23.13;;;13.02;;
51358;SDS011;37448;51.588;7.248;2024-03-08T00:44:20;20.67;;;12.50;;
51358;SDS011;37448;51.588;7.248;2024-03-08T00:46:21;25.08;;;14.52;;
51358;SDS011;37448;51.588;7.248;2024-03-08T00:48:22;23.17;;;13.82;;
51358;SDS011;37448;51.588;7.248;2024-03-08T00:50:22;25.27;;;13.70;;
51358;SDS011;37448;51.588;7.248;2024-03-08T00:52:23;21.48;;;12.40;;
51358;SDS011;37448;51.588;7.248;2024-03-08T00:54:24;25.58;;;13.27;;
51358;SDS011;37448;51.588;7.248;2024-03-08T00:56:24;23.42;;;14.30;;
51358;SDS011;37448;51.588;7.248;2024-03-08T00:58:25;23.70;;;13.48;;
51358;SDS011;37448;51.588;7.248;2024-03-08T01:00:25;24.27;;;13.45;;
51358;SDS011;37448;51.588;7.248;2024-03-08T01:02:26;21.33;;;13.90;;
51358;SDS011;37448;51.588;7.248;2024-03-08T01:04:26;21.52;;;12.63;;
51358;SDS011;37448;51.588;7.248;2024-03-08T01:06:29;22.45;;;14.80;;
51358;SDS011;37448;51.588;7.248;2024-03-08T01:08:29;24.45;;;12.75;;
51358;SDS011;37448;51.588;7.248;2024-03-08T01:10:29;24.05;;;14.05;;
51358;SDS011;37448;51.588;7.248;2024-03-08T01:12:30;26.85;;;14.70;;
51358;SDS011;37448;51.588;7.248;2024-03-08T01:14:30;25.25;;;13.38;;
51358;SDS011;37448;51.588;7.248;2024-03-08T01:16:31;24.80;;;12.27;;
51358;SDS011;37448;51.588;7.248;2024-03-08T01:18:33;27.40;;;16.27;;
51358;SDS011;37448;51.588;7.248;2024-03-08T01:20:33;21.67;;;13.68;;
51358;SDS011;37448;51.588;7.248;2024-03-08T01:22:34;23.23;;;14.15;;
51358;SDS011;37448;51.588;7.248;2024-03-08T01:24:34;25.50;;;13.90;;
51358;SDS011;37448;51.588;7.248;2024-03-08T01:26:34;26.95;;;14.35;;
51358;SDS011;37448;51.588;7.248;2024-03-08T01:28:35;24.60;;;13.77;;
51358;SDS011;37448;51.588;7.248;2024-03-08T01:30:35;24.08;;;13.98;;
51358;SDS011;37448;51.588;7.248;2024-03-08T01:32:37;21.98;;;14.63;;
51358;SDS011;37448;51.588;7.248;2024-03-08T01:34:38;23.83;;;13.77;;
51358;SDS011;37448;51.588;7.248;2024-03-08T01:36:38;23.45;;;14.13;;
51358;SDS011;37448;51.588;7.248;2024-03-08T01:38:39;27.35;;;14.65;;
51358;SDS011;37448;51.588;7.248;2024-03-08T01:40:39;25.23;;;14.00;;
51358;SDS011;37448;51.588;7.248;2024-03-08T01:42:41;24.02;;;13.70;;
51358;SDS011;37448;51.588;7.248;2024-03-08T01:44:41;21.27;;;13.90;;
51358;SDS011;37448;51.588;7.248;2024-03-08T01:46:44;25.05;;;14.85;;
51358;SDS011;37448;51.588;7.248;2024-03-08T01:48:45;23.70;;;13.73;;
51358;SDS011;37448;51.588;7.248;2024-03-08T01:50:45;24.38;;;13.90;;
51358;SDS011;37448;51.588;7.248;2024-03-08T01:52:46;26.75;;;15.18;;
51358;SDS011;37448;51.588;7.248;2024-03-08T01:54:46;24.52;;;13.95;;
51358;SDS011;37448;51.588;7.248;2024-03-08T01:56:47;22.10;;;14.90;;
51358;SDS011;37448;51.588;7.248;2024-03-08T01:58:48;28.48;;;15.30;;
51358;SDS011;37448;51.588;7.248;2024-03-08T02:00:48;23.73;;;12.98;;
51358;SDS011;37448;51.588;7.248;2024-03-08T02:02:49;27.58;;;13.10;;
51358;SDS011;37448;51.588;7.248;2024-03-08T02:04:51;25.98;;;14.15;;
51358;SDS011;37448;51.588;7.248;2024-03-08T02:06:52;26.40;;;14.55;;
51358;SDS011;37448;51.588;7.248;2024-03-08T02:08:53;22.10;;;13.70;;
51358;SDS011;37448;51.588;7.248;2024-03-08T02:10:53;22.40;;;12.50;;
51358;SDS011;37448;51.588;7.248;2024-03-08T02:12:54;23.92;;;13.30;;
51358;SDS011;37448;51.588;7.248;2024-03-08T02:14:55;28.25;;;14.35;;
51358;SDS011;37448;51.588;7.248;2024-03-08T02:16:59;27.13;;;14.40;;
51358;SDS011;37448;51.588;7.248;2024-03-08T02:19:00;29.73;;;12.82;;
51358;SDS011;37448;51.588;7.248;2024-03-08T02:21:01;25.85;;;13.93;;
51358;SDS011;37448;51.588;7.248;2024-03-08T02:23:03;21.73;;;13.23;;
51358;SDS011;37448;51.588;7.248;2024-03-08T02:25:03;25.23;;;13.25;;
51358;SDS011;37448;51.588;7.248;2024-03-08T02:27:05;24.95;;;14.32;;
51358;SDS011;37448;51.588;7.248;2024-03-08T02:29:06;22.20;;;13.50;;
51358;SDS011;37448;51.588;7.248;2024-03-08T02:31:06;25.08;;;12.18;;
51358;SDS011;37448;51.588;7.248;2024-03-08T02:33:08;25.38;;;14.40;;
51358;SDS011;37448;51.588;7.248;2024-03-08T02:35:11;30.95;;;15.23;;
51358;SDS011;37448;51.588;7.248;2024-03-08T02:37:12;26.08;;;13.70;;
51358;SDS011;37448;51.588;7.248;2024-03-08T02:39:12;25.85;;;13.93;;
51358;SDS011;37448;51.588;7.248;2024-03-08T02:41:13;29.05;;;14.07;;
51358;SDS011;37448;51.588;7.248;2024-03-08T02:43:13;24.10;;;13.60;;
51358;SDS011;37448;51.588;7.248;2024-03-08T02:45:22;25.38;;;14.23;;
51358;SDS011;37448;51.588;7.248;2024-03-08T02:47:22;25.98;;;14.50;;
51358;SDS011;37448;51.588;7.248;2024-03-08T02:49:22;24.85;;;13.60;;
51358;SDS011;37448;51.588;7.248;2024-03-08T02:51:23;24.15;;;14.35;;
51358;SDS011;37448;51.588;7.248;2024-03-08T02:53:23;26.13;;;13.30;;
51358;SDS011;37448;51.588;7.248;2024-03-08T02:55:24;29.13;;;15.35;;
51358;SDS011;37448;51.588;7.248;2024-03-08T02:57:26;26.83;;;14.50;;
51358;SDS011;37448;51.588;7.248;2024-03-08T02:59:27;27.90;;;15.07;;
51358;SDS011;37448;51.588;7.248;2024-03-08T03:01:27;24.65;;;13.85;;
51358;SDS011;37448;51.588;7.248;2024-03-08T03:03:28;29.33;;;13.68;;
51358;SDS011;37448;51.588;7.248;2024-03-08T03:05:28;23.92;;;14.35;;
51358;SDS011;37448;51.588;7.248;2024-03-08T03:07:33;31.85;;;15.43;;
51358;SDS011;37448;51.588;7.248;2024-03-08T03:09:34;31.25;;;14.65;;
51358;SDS011;37448;51.588;7.248;2024-03-08T03:11:35;26.58;;;16.35;;
51358;SDS011;37448;51.588;7.248;2024-03-08T03:13:35;27.70;;;14.27;;
51358;SDS011;37448;51.588;7.248;2024-03-08T03:15:35;26.55;;;14.27;;
51358;SDS011;37448;51.588;7.248;2024-03-08T03:17:36;27.60;;;14.63;;
51358;SDS011;37448;51.588;7.248;2024-03-08T03:19:37;27.42;;;15.43;;
51358;SDS011;37448;51.588;7.248;2024-03-08T03:21:40;30.80;;;15.32;;
51358;SDS011;37448;51.588;7.248;2024-03-08T03:23:43;26.17;;;14.98;;
51358;SDS011;37448;51.588;7.248;2024-03-08T03:25:43;28.20;;;15.75;;
51358;SDS011;37448;51.588;7.248;2024-03-08T03:27:45;27.35;;;14.80;;
51358;SDS011;37448;51.588;7.248;2024-03-08T03:29:46;27.63;;;15.70;;
51358;SDS011;37448;51.588;7.248;2024-03-08T03:31:47;29.92;;;15.98;;
51358;SDS011;37448;51.588;7.248;2024-03-08T03:33:47;30.75;;;16.15;;
51358;SDS011;37448;51.588;7.248;2024-03-08T03:35:47;26.08;;;15.23;;
51358;SDS011;37448;51.588;7.248;2024-03-08T03:37:48;30.92;;;14.57;;
51358;SDS011;37448;51.588;7.248;2024-03-08T03:40:02;33.63;;;16.00;;
51358;SDS011;37448;51.588;7.248;2024-03-08T03:42:02;28.98;;;14.55;;
51358;SDS011;37448;51.588;7.248;2024-03-08T03:44:03;26.92;;;15.10;;
51358;SDS011;37448;51.588;7.248;2024-03-08T03:46:07;28.88;;;16.02;;
51358;SDS011;37448;51.588;7.248;2024-03-08T03:48:08;25.17;;;13.85;;
51358;SDS011;37448;51.588;7.248;2024-03-08T03:50:11;29.05;;;15.40;;
51358;SDS011;37448;51.588;7.248;2024-03-08T03:52:12;30.73;;;15.77;;
51358;SDS011;37448;51.588;7.248;2024-03-08T03:54:12;31.15;;;16.38;;
51358;SDS011;37448;51.588;7.248;2024-03-08T03:56:13;23.80;;;15.20;;
51358;SDS011;37448;51.588;7.248;2024-03-08T03:58:13;23.52;;;14.27;;
51358;SDS011;37448;51.588;7.248;2024-03-08T04:00:14;31.75;;;15.27;;
51358;SDS011;37448;51.588;7.248;2024-03-08T04:02:15;32.03;;;15.25;;
51358;SDS011;37448;51.588;7.248;2024-03-08T04:04:15;29.35;;;15.57;;
51358;SDS011;37448;51.588;7.248;2024-03-08T04:06:15;31.75;;;15.45;;
51358;SDS011;37448;51.588;7.248;2024-03-08T04:08:16;29.90;;;16.58;;
51358;SDS011;37448;51.588;7.248;2024-03-08T04:10:17;29.92;;;14.77;;
51358;SDS011;37448;51.588;7.248;2024-03-08T04:12:17;26.00;;;14.73;;
51358;SDS011;37448;51.588;7.248;2024-03-08T04:14:17;30.55;;;15.55;;
51358;SDS011;37448;51.588;7.248;2024-03-08T04:16:18;27.42;;;15.07;;
51358;SDS011;37448;51.588;7.248;2024-03-08T04:18:19;26.83;;;14.98;;
51358;SDS011;37448;51.588;7.248;2024-03-08T04:20:19;25.85;;;14.98;;
51358;SDS011;37448;51.588;7.248;2024-03-08T04:22:19;29.85;;;16.30;;
51358;SDS011;37448;51.588;7.248;2024-03-08T04:24:20;28.70;;;14.75;;
51358;SDS011;37448;51.588;7.248;2024-03-08T04:26:20;28.13;;;14.77;;
51358;SDS011;37448;51.588;7.248;2024-03-08T04:28:21;30.65;;;15.57;;
51358;SDS011;37448;51.588;7.248;2024-03-08T04:30:21;28.80;;;14.60;;
51358;SDS011;37448;51.588;7.248;2024-03-08T04:32:22;30.55;;;15.35;;
51358;SDS011;37448;51.588;7.248;2024-03-08T04:34:23;30.95;;;16.52;;
51358;SDS011;37448;51.588;7.248;2024-03-08T04:36:24;25.23;;;14.30;;
51358;SDS011;37448;51.588;7.248;2024-03-08T04:38:25;30.05;;;16.33;;
51358;SDS011;37448;51.588;7.248;2024-03-08T04:40:25;31.73;;;15.90;;
51358;SDS011;37448;51.588;7.248;2024-03-08T04:42:26;25.45;;;14.35;;
51358;SDS011;37448;51.588;7.248;2024-03-08T04:44:30;28.45;;;15.63;;
51358;SDS011;37448;51.588;7.248;2024-03-08T04:46:31;26.33;;;13.15;;
51358;SDS011;37448;51.588;7.248;2024-03-08T04:48:31;29.10;;;15.93;;
51358;SDS011;37448;51.588;7.248;2024-03-08T04:50:32;30.33;;;15.57;;
51358;SDS011;37448;51.588;7.248;2024-03-08T04:52:32;29.90;;;14.70;;
51358;SDS011;37448;51.588;7.248;2024-03-08T04:54:32;26.35;;;14.45;;
51358;SDS011;37448;51.588;7.248;2024-03-08T04:56:33;28.08;;;14.07;;
51358;SDS011;37448;51.588;7.248;2024-03-08T04:58:36;37.08;;;16.38;;
51358;SDS011;37448;51.588;7.248;2024-03-08T05:00:38;29.55;;;15.18;;
51358;SDS011;37448;51.588;7.248;2024-03-08T05:02:39;30.63;;;15.50;;
51358;SDS011;37448;51.588;7.248;2024-03-08T05:04:39;29.98;;;16.40;;
51358;SDS011;37448;51.588;7.248;2024-03-08T05:06:39;29.58;;;16.02;;
51358;SDS011;37448;51.588;7.248;2024-03-08T05:08:40;28.23;;;15.27;;
51358;SDS011;37448;51.588;7.248;2024-03-08T05:10:40;31.85;;;15.50;;
51358;SDS011;37448;51.588;7.248;2024-03-08T05:12:40;27.02;;;15.13;;
51358;SDS011;37448;51.588;7.248;2024-03-08T05:14:41;25.88;;;13.35;;
51358;SDS011;37448;51.588;7.248;2024-03-08T05:16:41;28.58;;;16.20;;
51358;SDS011;37448;51.588;7.248;2024-03-08T05:18:48;28.02;;;15.13;;
51358;SDS011;37448;51.588;7.248;2024-03-08T05:20:48;31.05;;;15.70;;
51358;SDS011;37448;51.588;7.248;2024-03-08T05:22:50;32.15;;;15.60;;
51358;SDS011;37448;51.588;7.248;2024-03-08T05:24:51;28.98;;;15.07;;
51358;SDS011;37448;51.588;7.248;2024-03-08T05:26:51;33.25;;;15.27;;
51358;SDS011;37448;51.588;7.248;2024-03-08T05:28:52;35.17;;;18.23;;
51358;SDS011;37448;51.588;7.248;2024-03-08T05:30:52;24.30;;;14.65;;
51358;SDS011;37448;51.588;7.248;2024-03-08T05:32:52;31.27;;;15.20;;
51358;SDS011;37448;51.588;7.248;2024-03-08T05:34:53;32.05;;;15.05;;
51358;SDS011;37448;51.588;7.248;2024-03-08T05:36:53;32.10;;;16.02;;
51358;SDS011;37448;51.588;7.248;2024-03-08T05:38:54;34.05;;;17.75;;
51358;SDS011;37448;51.588;7.248;2024-03-08T05:40:55;36.85;;;18.40;;
51358;SDS011;37448;51.588;7.248;2024-03-08T05:42:55;32.65;;;17.02;;
51358;SDS011;37448;51.588;7.248;2024-03-08T05:44:55;31.55;;;16.08;;
51358;SDS011;37448;51.588;7.248;2024-03-08T05:46:57;32.22;;;16.85;;
51358;SDS011;37448;51.588;7.248;2024-03-08T05:48:57;30.60;;;16.00;;
51358;SDS011;37448;51.588;7.248;2024-03-08T05:51:05;33.03;;;18.15;;
51358;SDS011;37448;51.588;7.248;2024-03-08T05:53:05;34.85;;;18.52;;
51358;SDS011;37448;51.588;7.248;2024-03-08T05:55:09;32.20;;;16.25;;
51358;SDS011;37448;51.588;7.248;2024-03-08T05:57:09;28.63;;;14.77;;
51358;SDS011;37448;51.588;7.248;2024-03-08T05:59:11;31.98;;;15.82;;
51358;SDS011;37448;51.588;7.248;2024-03-08T06:01:11;27.98;;;15.50;;
51358;SDS011;37448;51.588;7.248;2024-03-08T06:03:12;30.60;;;15.93;;
51358;SDS011;37448;51.588;7.248;2024-03-08T06:05:13;35.45;;;16.65;;
51358;SDS011;37448;51.588;7.248;2024-03-08T06:07:13;30.60;;;16.73;;
51358;SDS011;37448;51.588;7.248;2024-03-08T06:09:14;28.48;;;16.13;;
51358;SDS011;37448;51.588;7.248;2024-03-08T06:11:22;33.25;;;17.00;;
51358;SDS011;37448;51.588;7.248;2024-03-08T06:13:23;37.47;;;18.70;;
51358;SDS011;37448;51.588;7.248;2024-03-08T06:15:23;36.22;;;17.92;;
51358;SDS011;37448;51.588;7.248;2024-03-08T06:17:24;36.88;;;16.95;;
51358;SDS011;37448;51.588;7.248;2024-03-08T06:19:25;34.13;;;16.33;;
51358;SDS011;37448;51.588;7.248;2024-03-08T06:21:26;31.48;;;15.85;;
51358;SDS011;37448;51.588;7.248;2024-03-08T06:23:27;32.50;;;16.52;;
51358;SDS011;37448;51.588;7.248;2024-03-08T06:25:27;32.88;;;16.77;;
51358;SDS011;37448;51.588;7.248;2024-03-08T06:27:27;37.08;;;17.27;;
51358;SDS011;37448;51.588;7.248;2024-03-08T06:29:28;32.47;;;16.02;;
51358;SDS011;37448;51.588;7.248;2024-03-08T06:31:28;35.05;;;16.52;;
51358;SDS011;37448;51.588;7.248;2024-03-08T06:33:29;33.30;;;14.95;;
51358;SDS011;37448;51.588;7.248;2024-03-08T06:35:30;35.00;;;17.48;;
51358;SDS011;37448;51.588;7.248;2024-03-08T06:37:34;32.17;;;18.48;;
51358;SDS011;37448;51.588;7.248;2024-03-08T06:39:34;29.42;;;15.20;;
51358;SDS011;37448;51.588;7.248;2024-03-08T06:41:36;36.10;;;17.35;;
51358;SDS011;37448;51.588;7.248;2024-03-08T06:43:36;31.98;;;17.95;;
51358;SDS011;37448;51.588;7.248;2024-03-08T06:45:37;33.30;;;16.52;;
51358;SDS011;37448;51.588;7.248;2024-03-08T06:47:38;31.17;;;17.50;;
51358;SDS011;37448;51.588;7.248;2024-03-08T06:49:38;29.48;;;15.23;;
51358;SDS011;37448;51.588;7.248;2024-03-08T06:51:39;31.58;;;16.88;;
51358;SDS011;37448;51.588;7.248;2024-03-08T06:53:41;28.65;;;15.63;;
51358;SDS011;37448;51.588;7.248;2024-03-08T06:55:41;35.33;;;18.27;;
51358;SDS011;37448;51.588;7.248;2024-03-08T06:57:42;31.90;;;15.73;;
51358;SDS011;37448;51.588;7.248;2024-03-08T06:59:42;33.85;;;17.88;;
51358;SDS011;37448;51.588;7.248;2024-03-08T07:01:43;31.20;;;17.88;;
51358;SDS011;37448;51.588;7.248;2024-03-08T07:03:43;31.17;;;17.35;;
51358;SDS011;37448;51.588;7.248;2024-03-08T07:05:44;40.83;;;18.63;;
51358;SDS011;37448;51.588;7.248;2024-03-08T07:07:45;31.77;;;17.45;;
51358;SDS011;37448;51.588;7.248;2024-03-08T07:09:48;33.25;;;16.90;;
51358;SDS011;37448;51.588;7.248;2024-03-08T07:11:49;30.05;;;15.88;;
51358;SDS011;37448;51.588;7.248;2024-03-08T07:13:54;34.33;;;18.02;;
51358;SDS011;37448;51.588;7.248;2024-03-08T07:15:55;29.83;;;15.73;;
51358;SDS011;37448;51.588;7.248;2024-03-08T07:17:55;29.52;;;17.15;;
51358;SDS011;37448;51.588;7.248;2024-03-08T07:19:55;33.22;;;18.13;;
51358;SDS011;37448;51.588;7.248;2024-03-08T07:21:59;39.30;;;19.35;;
51358;SDS011;37448;51.588;7.248;2024-03-08T07:23:59;30.45;;;16.05;;
51358;SDS011;37448;51.588;7.248;2024-03-08T07:26:00;32.03;;;18.25;;
51358;SDS011;37448;51.588;7.248;2024-03-08T07:28:01;30.85;;;16.40;;
51358;SDS011;37448;51.588;7.248;2024-03-08T07:30:02;35.08;;;17.42;;
51358;SDS011;37448;51.588;7.248;2024-03-08T07:32:03;28.75;;;15.25;;
51358;SDS011;37448;51.588;7.248;2024-03-08T07:34:21;28.42;;;15.48;;
51358;SDS011;37448;51.588;7.248;2024-03-08T07:36:21;26.40;;;15.23;;
51358;SDS011;37448;51.588;7.248;2024-03-08T07:38:22;31.33;;;16.13;;
51358;SDS011;37448;51.588;7.248;2024-03-08T07:40:23;24.90;;;13.85;;
51358;SDS011;37448;51.588;7.248;2024-03-08T07:42:23;25.45;;;15.23;;
51358;SDS011;37448;51.588;7.248;2024-03-08T07:44:24;30.25;;;17.58;;
51358;SDS011;37448;51.588;7.248;2024-03-08T07:46:24;26.98;;;16.10;;
51358;SDS011;37448;51.588;7.248;2024-03-08T07:48:24;26.27;;;15.93;;
51358;SDS011;37448;51.588;7.248;2024-03-08T07:50:25;28.95;;;15.15;;
51358;SDS011;37448;51.588;7.248;2024-03-08T07:52:26;26.90;;;15.77;;
51358;SDS011;37448;51.588;7.248;2024-03-08T07:54:26;27.25;;;15.68;;
51358;SDS011;37448;51.588;7.248;2024-03-08T07:56:27;27.00;;;16.02;;
51358;SDS011;37448;51.588;7.248;2024-03-08T07:58:27;26.70;;;16.60;;
51358;SDS011;37448;51.588;7.248;2024-03-08T08:00:28;27.48;;;16.13;;
51358;SDS011;37448;51.588;7.248;2024-03-08T08:02:31;23.55;;;15.88;;
51358;SDS011;37448;51.588;7.248;2024-03-08T08:04:31;26.20;;;15.52;;
51358;SDS011;37448;51.588;7.248;2024-03-08T08:06:32;23.65;;;15.07;;
51358;SDS011;37448;51.588;7.248;2024-03-08T08:08:33;23.17;;;15.52;;
51358;SDS011;37448;51.588;7.248;2024-03-08T08:10:33;29.60;;;15.40;;
51358;SDS011;37448;51.588;7.248;2024-03-08T08:12:33;25.33;;;15.75;;
51358;SDS011;37448;51.588;7.248;2024-03-08T08:14:34;22.38;;;14.77;;
51358;SDS011;37448;51.588;7.248;2024-03-08T08:16:37;25.10;;;15.80;;
51358;SDS011;37448;51.588;7.248;2024-03-08T08:18:38;22.20;;;13.57;;
51358;SDS011;37448;51.588;7.248;2024-03-08T08:20:39;26.35;;;15.35;;
51358;SDS011;37448;51.588;7.248;2024-03-08T08:22:39;26.13;;;14.43;;
51358;SDS011;37448;51.588;7.248;2024-03-08T08:24:40;24.58;;;13.57;;
51358;SDS011;37448;51.588;7.248;2024-03-08T08:26:41;25.75;;;15.30;;
51358;SDS011;37448;51.588;7.248;2024-03-08T08:28:41;25.58;;;15.80;;
51358;SDS011;37448;51.588;7.248;2024-03-08T08:30:43;22.08;;;13.45;;
51358;SDS011;37448;51.588;7.248;2024-03-08T08:32:46;25.88;;;15.98;;
51358;SDS011;37448;51.588;7.248;2024-03-08T08:34:47;26.15;;;14.07;;
51358;SDS011;37448;51.588;7.248;2024-03-08T08:36:48;25.20;;;14.90;;
51358;SDS011;37448;51.588;7.248;2024-03-08T08:38:48;23.90;;;14.45;;
51358;SDS011;37448;51.588;7.248;2024-03-08T08:40:48;25.88;;;15.70;;
51358;SDS011;37448;51.588;7.248;2024-03-08T08:42:50;24.05;;;14.38;;
51358;SDS011;37448;51.588;7.248;2024-03-08T08:44:51;25.23;;;14.35;;
51358;SDS011;37448;51.588;7.248;2024-03-08T08:46:52;22.50;;;13.68;;
51358;SDS011;37448;51.588;7.248;2024-03-08T08:48:53;24.00;;;15.85;;
51358;SDS011;37448;51.588;7.248;2024-03-08T08:50:53;25.42;;;15.50;;
51358;SDS011;37448;51.588;7.248;2024-03-08T08:52:55;22.48;;;15.60;;
51358;SDS011;37448;51.588;7.248;2024-03-08T08:54:55;29.40;;;15.38;;
51358;SDS011;37448;51.588;7.248;2024-03-08T08:56:56;23.30;;;15.80;;
51358;SDS011;37448;51.588;7.248;2024-03-08T08:58:57;25.83;;;16.17;;
51358;SDS011;37448;51.588;7.248;2024-03-08T09:00:58;24.05;;;16.30;;
51358;SDS011;37448;51.588;7.248;2024-03-08T09:02:59;21.25;;;15.30;;
51358;SDS011;37448;51.588;7.248;2024-03-08T09:05:00;24.27;;;14.38;;
51358;SDS011;37448;51.588;7.248;2024-03-08T09:07:03;24.15;;;15.95;;
51358;SDS011;37448;51.588;7.248;2024-03-08T09:09:06;25.20;;;15.07;;
51358;SDS011;37448;51.588;7.248;2024-03-08T09:11:09;23.00;;;15.88;;
51358;SDS011;37448;51.588;7.248;2024-03-08T09:13:10;24.52;;;14.80;;
51358;SDS011;37448;51.588;7.248;2024-03-08T09:15:13;24.48;;;14.73;;
51358;SDS011;37448;51.588;7.248;2024-03-08T09:17:13;24.05;;;14.80;;
51358;SDS011;37448;51.588;7.248;2024-03-08T09:19:17;23.77;;;15.07;;
51358;SDS011;37448;51.588;7.248;2024-03-08T09:21:19;23.83;;;15.00;;
51358;SDS011;37448;51.588;7.248;2024-03-08T09:23:19;22.95;;;15.40;;
51358;SDS011;37448;51.588;7.248;2024-03-08T09:25:20;30.45;;;15.45;;
51358;SDS011;37448;51.588;7.248;2024-03-08T09:27:20;26.33;;;16.42;;
51358;SDS011;37448;51.588;7.248;2024-03-08T09:29:21;20.65;;;14.32;;
51358;SDS011;37448;51.588;7.248;2024-03-08T09:31:21;24.63;;;15.52;;
51358;SDS011;37448;51.588;7.248;2024-03-08T09:33:22;21.73;;;13.80;;
51358;SDS011;37448;51.588;7.248;2024-03-08T09:35:22;22.23;;;14.98;;
51358;SDS011;37448;51.588;7.248;2024-03-08T09:37:23;24.65;;;14.57;;
51358;SDS011;37448;51.588;7.248;2024-03-08T09:39:23;23.27;;;15.50;;
51358;SDS011;37448;51.588;7.248;2024-03-08T09:41:24;22.00;;;14.88;;
51358;SDS011;37448;51.588;7.248;2024-03-08T09:43:24;24.05;;;13.85;;
51358;SDS011;37448;51.588;7.248;2024-03-08T09:45:25;20.67;;;14.57;;
51358;SDS011;37448;51.588;7.248;2024-03-08T09:47:25;21.52;;;14.82;;
51358;SDS011;37448;51.588;7.248;2024-03-08T09:49:33;20.20;;;14.32;;
51358;SDS011;37448;51.588;7.248;2024-03-08T09:51:34;22.98;;;15.02;;
51358;SDS011;37448;51.588;7.248;2024-03-08T09:53:35;22.92;;;15.75;;
51358;SDS011;37448;51.588;7.248;2024-03-08T09:55:36;24.63;;;15.75;;
51358;SDS011;37448;51.588;7.248;2024-03-08T09:57:37;24.70;;;15.82;;
51358;SDS011;37448;51.588;7.248;2024-03-08T09:59:38;24.38;;;15.88;;
51358;SDS011;37448;51.588;7.248;2024-03-08T10:01:38;23.83;;;14.25;;
51358;SDS011;37448;51.588;7.248;2024-03-08T10:03:39;20.70;;;14.40;;
51358;SDS011;37448;51.588;7.248;2024-03-08T10:05:41;23.98;;;15.68;;
51358;SDS011;37448;51.588;7.248;2024-03-08T10:07:41;21.42;;;14.55;;
51358;SDS011;37448;51.588;7.248;2024-03-08T10:09:42;23.55;;;14.43;;
51358;SDS011;37448;51.588;7.248;2024-03-08T10:11:47;27.27;;;15.38;;
51358;SDS011;37448;51.588;7.248;2024-03-08T10:13:48;24.48;;;16.20;;
51358;SDS011;37448;51.588;7.248;2024-03-08T10:15:50;22.23;;;14.43;;
51358;SDS011;37448;51.588;7.248;2024-03-08T10:17:51;23.25;;;13.88;;
51358;SDS011;37448;51.588;7.248;2024-03-08T10:19:53;24.10;;;15.07;;
51358;SDS011;37448;51.588;7.248;2024-03-08T10:21:53;20.23;;;13.95;;
51358;SDS011;37448;51.588;7.248;2024-03-08T10:23:54;21.40;;;13.63;;
51358;SDS011;37448;51.588;7.248;2024-03-08T10:25:56;21.00;;;13.20;;
51358;SDS011;37448;51.588;7.248;2024-03-08T10:27:58;19.40;;;13.45;;
51358;SDS011;37448;51.588;7.248;2024-03-08T10:29:58;20.58;;;15.57;;
51358;SDS011;37448;51.588;7.248;2024-03-08T10:31:59;21.40;;;13.98;;
51358;SDS011;37448;51.588;7.248;2024-03-08T10:34:00;20.75;;;14.20;;
51358;SDS011;37448;51.588;7.248;2024-03-08T10:36:01;22.13;;;14.38;;
51358;SDS011;37448;51.588;7.248;2024-03-08T10:38:03;22.40;;;14.80;;
51358;SDS011;37448;51.588;7.248;2024-03-08T10:40:07;22.88;;;15.32;;
51358;SDS011;37448;51.588;7.248;2024-03-08T10:42:16;21.55;;;13.55;;
51358;SDS011;37448;51.588;7.248;2024-03-08T10:48:44;20.42;;;13.82;;
51358;SDS011;37448;51.588;7.248;2024-03-08T10:50:45;22.83;;;15.77;;
51358;SDS011;37448;51.588;7.248;2024-03-08T10:52:49;22.90;;;14.05;;
51358;SDS011;37448;51.588;7.248;2024-03-08T10:54:51;23.17;;;14.10;;
51358;SDS011;37448;51.588;7.248;2024-03-08T10:56:52;21.67;;;14.65;;
51358;SDS011;37448;51.588;7.248;2024-03-08T10:58:58;22.27;;;14.57;;
51358;SDS011;37448;51.588;7.248;2024-03-08T11:01:04;21.73;;;13.80;;
51358;SDS011;37448;51.588;7.248;2024-03-08T11:03:06;24.35;;;15.50;;
51358;SDS011;37448;51.588;7.248;2024-03-08T11:05:09;21.27;;;12.98;;
51358;SDS011;37448;51.588;7.248;2024-03-08T11:07:13;23.23;;;13.80;;
51358;SDS011;37448;51.588;7.248;2024-03-08T11:09:30;23.02;;;14.05;;
51358;SDS011;37448;51.588;7.248;2024-03-08T11:11:32;23.38;;;13.25;;
51358;SDS011;37448;51.588;7.248;2024-03-08T11:13:37;24.15;;;13.50;;
51358;SDS011;37448;51.588;7.248;2024-03-08T11:15:49;24.88;;;13.80;;
51358;SDS011;37448;51.588;7.248;2024-03-08T11:17:49;30.10;;;15.45;;
51358;SDS011;37448;51.588;7.248;2024-03-08T11:19:50;22.85;;;14.20;;
51358;SDS011;37448;51.588;7.248;2024-03-08T11:21:59;25.65;;;15.23;;
51358;SDS011;37448;51.588;7.248;2024-03-08T11:24:06;22.75;;;14.60;;
51358;SDS011;37448;51.588;7.248;2024-03-08T11:26:18;21.58;;;13.93;;
51358;SDS011;37448;51.588;7.248;2024-03-08T11:28:21;23.27;;;14.75;;
51358;SDS011;37448;51.588;7.248;2024-03-08T11:30:23;24.05;;;13.65;;
51358;SDS011;37448;51.588;7.248;2024-03-08T11:32:27;21.20;;;13.25;;
51358;SDS011;37448;51.588;7.248;2024-03-08T11:34:28;23.40;;;14.32;;
51358;SDS011;37448;51.588;7.248;2024-03-08T11:36:30;21.60;;;14.25;;
51358;SDS011;37448;51.588;7.248;2024-03-08T11:38:43;25.98;;;15.02;;
51358;SDS011;37448;51.588;7.248;2024-03-08T11:40:45;23.90;;;13.57;;
51358;SDS011;37448;51.588;7.248;2024-03-08T11:42:49;21.85;;;13.15;;
51358;SDS011;37448;51.588;7.248;2024-03-08T11:44:51;22.27;;;14.32;;
51358;SDS011;37448;51.588;7.248;2024-03-08T11:46:53;21.92;;;12.38;;
51358;SDS011;37448;51.588;7.248;2024-03-08T11:48:54;23.77;;;14.43;;
51358;SDS011;37448;51.588;7.248;2024-03-08T11:50:59;24.63;;;13.65;;
51358;SDS011;37448;51.588;7.248;2024-03-08T11:53:04;22.80;;;14.20;;
51358;SDS011;37448;51.588;7.248;2024-03-08T11:55:06;23.50;;;12.85;;